createdAt,value
2023-01-20T00:01:23.722Z,12.33
2023-01-20T00:03:53.446Z,14.23
2023-01-20T00:06:22.031Z,15.03
2023-01-20T00:08:52.343Z,15.87
2023-01-20T00:11:21.242Z,12.67
2023-01-20T00:13:54.910Z,11.03
2023-01-20T00:16:23.212Z,12.40
2023-01-20T00:18:51.402Z,12.63
2023-01-20T00:21:19.651Z,11.67
2023-01-20T00:23:49.104Z,13.17
2023-01-20T00:26:19.759Z,13.53
2023-01-20T00:28:48.627Z,11.70
2023-01-20T00:31:19.949Z,13.33
2023-01-20T00:33:49.442Z,10.63
2023-01-20T00:36:19.142Z,14.60
2023-01-20T00:38:47.325Z,11.50
2023-01-20T00:41:15.609Z,12.30
2023-01-20T00:43:44.446Z,12.07
2023-01-20T00:46:12.840Z,13.00
2023-01-20T00:48:42.783Z,11.73
2023-01-20T00:51:11.195Z,12.33
2023-01-20T00:53:39.215Z,14.63
2023-01-20T00:56:07.788Z,13.20
2023-01-20T00:58:35.921Z,12.50
2023-01-20T01:01:04.026Z,14.03
2023-01-20T01:06:15.126Z,11.70
2023-01-20T01:08:43.722Z,13.20
2023-01-20T01:11:33.748Z,14.13
2023-01-20T01:14:01.765Z,15.00
2023-01-20T01:16:29.943Z,13.87
2023-01-20T01:18:57.942Z,13.50
2023-01-20T01:21:25.978Z,14.33
2023-01-20T01:23:54.526Z,15.57
2023-01-20T01:26:22.636Z,12.47
2023-01-20T01:28:52.192Z,15.70
2023-01-20T01:31:21.980Z,15.37
2023-01-20T01:33:50.107Z,16.23
2023-01-20T01:36:18.798Z,15.80
2023-01-20T01:38:57.591Z,16.00
2023-01-20T01:41:27.594Z,15.53
2023-01-20T01:44:06.201Z,15.87
2023-01-20T01:46:34.250Z,14.07
2023-01-20T01:49:04.898Z,19.10
2023-01-20T01:51:36.593Z,18.23
2023-01-20T01:54:09.378Z,17.40
2023-01-20T01:56:38.902Z,16.67
2023-01-20T01:59:09.192Z,16.67
2023-01-20T02:01:40.644Z,17.80
2023-01-20T02:04:12.270Z,17.37
2023-01-20T02:06:42.205Z,17.03
2023-01-20T02:09:10.704Z,18.07
2023-01-20T02:11:41.595Z,18.10
2023-01-20T02:14:11.127Z,19.20
2023-01-20T02:16:48.678Z,20.17
2023-01-20T02:19:41.374Z,17.27
2023-01-20T02:22:22.183Z,16.63
2023-01-20T02:25:28.248Z,19.97
2023-01-20T02:28:17.609Z,20.37
2023-01-20T02:31:24.142Z,17.97
2023-01-20T02:33:57.925Z,17.13
2023-01-20T02:36:31.167Z,20.20
2023-01-20T02:39:04.097Z,15.37
2023-01-20T02:41:40.453Z,18.77
2023-01-20T02:44:14.528Z,17.10
2023-01-20T02:46:49.006Z,19.50
2023-01-20T02:49:24.875Z,19.83
2023-01-20T02:51:57.882Z,16.53
2023-01-20T02:54:29.947Z,16.50
2023-01-20T02:57:00.980Z,17.40
2023-01-20T02:59:34.094Z,18.20
2023-01-20T03:02:05.790Z,16.03
2023-01-20T03:04:39.670Z,18.80
2023-01-20T03:07:11.003Z,19.90
2023-01-20T03:09:44.185Z,15.83
2023-01-20T03:12:18.998Z,19.80
2023-01-20T03:14:46.991Z,17.30
2023-01-20T03:17:14.971Z,19.60
2023-01-20T03:19:44.343Z,17.53
2023-01-20T03:22:12.378Z,19.67
2023-01-20T03:24:42.966Z,17.17
2023-01-20T03:27:12.280Z,18.90
2023-01-20T03:29:40.712Z,17.30
2023-01-20T03:32:11.502Z,19.97
2023-01-20T03:34:42.792Z,17.80
2023-01-20T03:37:13.568Z,20.10
2023-01-20T03:39:41.981Z,15.00
2023-01-20T03:42:14.929Z,18.67
2023-01-20T03:45:00.445Z,20.70
2023-01-20T03:47:41.348Z,15.73
2023-01-20T03:50:16.816Z,18.23
2023-01-20T03:52:53.443Z,18.87
2023-01-20T03:55:25.723Z,18.30
2023-01-20T03:57:58.453Z,17.73
2023-01-20T04:00:29.754Z,18.87
2023-01-20T04:03:00.149Z,16.47
2023-01-20T04:05:29.256Z,20.07
2023-01-20T04:08:03.463Z,23.43
2023-01-20T04:10:33.796Z,19.63
2023-01-20T04:13:01.785Z,20.23
2023-01-20T04:15:33.305Z,19.20
2023-01-20T04:18:12.207Z,18.67
2023-01-20T04:20:40.540Z,18.63
2023-01-20T04:23:15.541Z,19.83
2023-01-20T04:25:44.466Z,17.40
2023-01-20T04:28:12.531Z,20.83
2023-01-20T04:30:40.557Z,19.87
2023-01-20T04:33:08.569Z,18.20
2023-01-20T04:35:36.585Z,17.77
2023-01-20T04:38:04.643Z,20.77
2023-01-20T04:40:34.017Z,16.77
2023-01-20T04:43:02.004Z,20.27
2023-01-20T04:45:30.012Z,20.00
2023-01-20T04:47:58.003Z,21.00
2023-01-20T04:50:25.997Z,19.53
2023-01-20T04:52:56.646Z,19.87
2023-01-20T04:55:26.407Z,19.83
2023-01-20T04:57:55.756Z,22.10
2023-01-20T05:00:23.869Z,21.47
2023-01-20T05:02:51.962Z,20.40
2023-01-20T05:05:19.946Z,21.57
2023-01-20T05:07:47.959Z,21.23
2023-01-20T05:10:16.070Z,21.97
2023-01-20T05:12:44.017Z,18.63
2023-01-20T05:15:13.724Z,17.90
2023-01-20T05:17:42.003Z,22.97
2023-01-20T05:20:11.433Z,18.83
2023-01-20T05:22:39.399Z,19.87
2023-01-20T05:25:08.172Z,21.20
2023-01-20T05:27:36.223Z,21.47
2023-01-20T05:30:04.377Z,18.00
2023-01-20T05:32:34.094Z,19.40
2023-01-20T05:35:02.074Z,17.83
2023-01-20T05:37:30.042Z,19.60
2023-01-20T05:39:58.043Z,18.00
2023-01-20T05:42:26.025Z,19.23
2023-01-20T05:44:54.031Z,19.37
2023-01-20T05:47:22.018Z,18.67
2023-01-20T05:49:51.390Z,20.93
2023-01-20T05:52:19.394Z,20.17
2023-01-20T05:54:47.397Z,18.03
2023-01-20T05:57:18.198Z,19.57
2023-01-20T05:59:47.655Z,23.63
2023-01-20T06:02:18.739Z,24.40
2023-01-20T06:04:46.983Z,28.57
2023-01-20T06:07:16.767Z,22.03
2023-01-20T06:09:44.822Z,24.33
2023-01-20T06:12:12.778Z,22.53
2023-01-20T06:14:40.741Z,22.87
2023-01-20T06:17:08.707Z,23.13
2023-01-20T06:19:36.687Z,24.17
2023-01-20T06:22:05.039Z,22.77
2023-01-20T06:24:34.407Z,22.40
2023-01-20T06:27:02.379Z,29.83
2023-01-20T06:29:31.778Z,26.73
2023-01-20T06:31:59.819Z,23.00
2023-01-20T06:34:27.836Z,21.37
2023-01-20T06:36:55.921Z,22.57
2023-01-20T06:39:23.954Z,25.60
2023-01-20T06:41:53.362Z,21.10
2023-01-20T06:44:21.310Z,17.90
2023-01-20T06:46:49.398Z,21.00
2023-01-20T06:49:17.420Z,20.47
2023-01-20T06:51:47.781Z,20.87
2023-01-20T06:54:16.058Z,19.73
2023-01-20T06:56:44.067Z,20.87
2023-01-20T06:59:13.758Z,20.37
2023-01-20T07:01:42.043Z,20.80
2023-01-20T07:06:41.637Z,19.40
2023-01-20T07:09:11.283Z,18.03
2023-01-20T07:11:39.445Z,18.73
2023-01-20T07:14:08.192Z,20.80
2023-01-20T07:16:37.901Z,19.30
2023-01-20T07:19:06.069Z,17.07
2023-01-20T07:21:34.024Z,20.77
2023-01-20T07:24:02.487Z,19.67
2023-01-20T07:26:30.781Z,20.80
2023-01-20T07:28:59.618Z,19.20
2023-01-20T07:31:31.326Z,16.60
2023-01-20T07:34:00.790Z,20.50
2023-01-20T07:36:29.259Z,21.90
2023-01-20T07:38:57.301Z,20.00
2023-01-20T07:41:25.368Z,21.83
2023-01-20T07:43:55.271Z,18.33
2023-01-20T07:46:23.494Z,21.57
2023-01-20T07:48:51.473Z,23.77
2023-01-20T07:51:20.804Z,20.93
2023-01-20T07:53:50.944Z,19.20
2023-01-20T07:56:20.533Z,23.47
2023-01-20T07:58:50.513Z,24.90
2023-01-20T08:01:20.883Z,23.90
2023-01-20T08:03:49.452Z,19.27
2023-01-20T08:06:21.067Z,25.63
2023-01-20T08:08:49.441Z,24.70
2023-01-20T08:11:19.422Z,23.63
2023-01-20T08:13:47.892Z,21.00
2023-01-20T08:16:17.615Z,22.33
2023-01-20T08:18:46.232Z,21.43
2023-01-20T08:21:21.568Z,17.17
2023-01-20T08:23:49.619Z,20.30
2023-01-20T08:26:19.243Z,24.20
2023-01-20T08:28:47.252Z,17.73
2023-01-20T08:31:17.376Z,20.70
2023-01-20T08:33:46.715Z,20.63
2023-01-20T08:36:17.011Z,18.80
2023-01-20T08:38:47.515Z,23.30
2023-01-20T08:41:17.779Z,22.63
2023-01-20T08:43:45.878Z,20.60
2023-01-20T08:46:16.381Z,23.07
2023-01-20T08:48:45.664Z,21.10
2023-01-20T08:51:16.047Z,21.23
2023-01-20T08:53:44.256Z,19.87
2023-01-20T08:56:14.436Z,17.97
2023-01-20T08:58:42.529Z,21.47
2023-01-20T09:01:11.211Z,19.83
2023-01-20T09:03:39.876Z,21.80
2023-01-20T09:06:09.088Z,21.30
2023-01-20T09:08:38.104Z,27.93
2023-01-20T09:11:07.980Z,20.03
2023-01-20T09:13:37.544Z,25.07
2023-01-20T09:16:06.298Z,18.10
2023-01-20T09:18:35.674Z,19.93
2023-01-20T09:21:06.733Z,19.23
2023-01-20T09:23:36.183Z,19.77
2023-01-20T09:26:05.255Z,24.77
2023-01-20T09:28:33.270Z,24.83
2023-01-20T09:31:06.714Z,18.70
2023-01-20T09:33:38.085Z,16.73
2023-01-20T09:36:07.430Z,23.70
2023-01-20T09:38:52.683Z,19.40
2023-01-20T09:41:45.823Z,21.77
2023-01-20T09:44:33.647Z,18.00
2023-01-20T09:47:21.225Z,18.87
2023-01-20T09:50:41.453Z,19.77
2023-01-20T09:53:16.139Z,19.23
2023-01-20T09:55:52.202Z,20.53
2023-01-20T09:58:28.778Z,17.93
2023-01-20T10:01:03.888Z,20.87
2023-01-20T10:03:40.874Z,23.47
2023-01-20T10:06:14.230Z,24.13
2023-01-20T10:09:03.897Z,19.73
2023-01-20T10:11:38.169Z,25.00
2023-01-20T10:14:15.019Z,19.10
2023-01-20T10:16:49.733Z,21.17
2023-01-20T10:19:28.087Z,23.77
2023-01-20T10:22:02.530Z,19.97
2023-01-20T10:24:35.305Z,18.97
2023-01-20T10:27:04.742Z,23.60
2023-01-20T10:29:37.042Z,19.57
2023-01-20T10:32:10.817Z,25.87
2023-01-20T10:34:45.359Z,23.20
2023-01-20T10:37:15.287Z,30.13
2023-01-20T10:39:49.257Z,27.37
2023-01-20T10:42:18.505Z,22.63
2023-01-20T10:44:49.184Z,25.47
2023-01-20T10:47:24.838Z,25.53
2023-01-20T10:50:23.750Z,24.27
2023-01-20T10:53:21.898Z,27.87
2023-01-20T10:56:05.945Z,23.83
2023-01-20T10:58:37.179Z,30.00
2023-01-20T11:01:08.968Z,33.70
2023-01-20T11:03:40.599Z,29.00
2023-01-20T11:06:18.220Z,29.87
2023-01-20T11:08:46.366Z,24.80
2023-01-20T11:11:17.811Z,29.63
2023-01-20T11:13:46.293Z,26.13
2023-01-20T11:16:18.635Z,35.33
2023-01-20T11:19:00.909Z,32.87
2023-01-20T11:21:32.517Z,34.43
2023-01-20T11:24:01.470Z,37.37
2023-01-20T11:26:32.244Z,34.57
2023-01-20T11:29:02.331Z,39.33
2023-01-20T11:31:41.894Z,28.10
2023-01-20T11:34:29.245Z,31.17
2023-01-20T11:37:19.246Z,28.27
2023-01-20T11:40:00.328Z,44.77
2023-01-20T11:42:30.702Z,42.07
2023-01-20T11:45:19.777Z,34.93
2023-01-20T11:47:59.668Z,40.73
2023-01-20T11:50:32.706Z,37.53
2023-01-20T11:53:24.706Z,35.77
2023-01-20T11:55:55.276Z,36.73
2023-01-20T11:58:25.127Z,37.97
2023-01-20T12:01:00.004Z,38.10
2023-01-20T12:03:49.075Z,39.47
2023-01-20T12:06:22.026Z,32.80
2023-01-20T12:08:53.757Z,30.17
2023-01-20T12:11:27.454Z,41.70
2023-01-20T12:14:28.596Z,38.87
2023-01-20T12:17:12.163Z,39.27
2023-01-20T12:19:54.111Z,36.60
2023-01-20T12:22:26.268Z,35.73
2023-01-20T12:25:10.345Z,39.07
2023-01-20T12:27:44.732Z,34.27
2023-01-20T12:30:39.516Z,28.87
2023-01-20T12:33:18.424Z,28.83
2023-01-20T12:36:08.068Z,33.33
2023-01-20T12:38:46.353Z,33.10
2023-01-20T12:41:25.395Z,33.77
2023-01-20T12:44:03.158Z,37.90
2023-01-20T12:46:39.336Z,33.57
2023-01-20T12:49:43.260Z,35.37
2023-01-20T12:52:24.616Z,36.80
2023-01-20T12:55:32.037Z,33.00
2023-01-20T12:58:08.624Z,29.90
2023-01-20T13:00:47.384Z,30.23
2023-01-20T13:03:44.033Z,41.70
2023-01-20T13:06:32.578Z,34.63
2023-01-20T13:09:10.939Z,32.87
2023-01-20T13:11:50.770Z,31.63
2023-01-20T13:14:23.236Z,33.13
2023-01-20T13:16:56.852Z,39.57
2023-01-20T13:19:30.555Z,35.27
2023-01-20T13:22:08.106Z,32.70
2023-01-20T13:24:37.135Z,34.37
2023-01-20T13:27:05.345Z,35.70
2023-01-20T13:29:54.070Z,41.70
2023-01-20T13:32:36.822Z,30.73
2023-01-20T13:35:45.575Z,35.37
2023-01-20T13:38:22.346Z,38.53
2023-01-20T13:40:58.728Z,35.27
2023-01-20T13:43:50.570Z,35.83
2023-01-20T13:46:48.396Z,36.13
2023-01-20T13:49:45.381Z,34.03
2023-01-20T13:52:13.441Z,33.20
2023-01-20T13:54:46.866Z,39.13
2023-01-20T13:57:37.615Z,40.43
2023-01-20T14:00:17.208Z,36.83
2023-01-20T14:02:47.687Z,38.30
2023-01-20T14:05:32.858Z,35.43
2023-01-20T14:08:01.436Z,36.50
2023-01-20T14:10:29.611Z,38.27
2023-01-20T14:12:57.573Z,37.47
2023-01-20T14:15:33.078Z,37.77
2023-01-20T14:18:03.609Z,39.47
2023-01-20T14:20:32.285Z,44.43
2023-01-20T14:23:37.617Z,41.37
2023-01-20T14:26:11.158Z,36.47
2023-01-20T14:28:46.329Z,41.10
2023-01-20T14:31:23.062Z,41.70
2023-01-20T14:33:57.640Z,39.87
2023-01-20T14:36:28.176Z,40.70
2023-01-20T14:38:58.712Z,39.30
2023-01-20T14:41:29.434Z,41.10
2023-01-20T14:43:58.038Z,38.03
2023-01-20T14:46:27.434Z,42.30
2023-01-20T14:48:58.032Z,43.67
2023-01-20T14:51:26.464Z,47.13
2023-01-20T14:54:34.898Z,43.80
2023-01-20T14:57:13.579Z,47.67
2023-01-20T14:59:41.594Z,49.37
2023-01-20T15:02:19.545Z,40.53
2023-01-20T15:04:48.951Z,50.90
2023-01-20T15:07:20.405Z,49.17
2023-01-20T15:09:55.023Z,48.10
2023-01-20T15:12:40.296Z,47.67
2023-01-20T15:15:20.107Z,46.57
2023-01-20T15:18:15.919Z,42.30
2023-01-20T15:20:47.909Z,40.80
2023-01-20T15:23:19.972Z,55.93
2023-01-20T15:25:48.447Z,44.90
2023-01-20T15:28:24.937Z,40.67
2023-01-20T15:30:54.173Z,44.87
2023-01-20T15:33:23.951Z,50.03
2023-01-20T15:35:58.596Z,45.70
2023-01-20T15:38:30.245Z,43.43
2023-01-20T15:40:58.547Z,44.40
2023-01-20T15:43:26.533Z,41.83
2023-01-20T15:45:54.483Z,47.07
2023-01-20T15:48:24.355Z,41.20
2023-01-20T15:50:52.391Z,52.37
2023-01-20T15:53:21.776Z,46.33
2023-01-20T15:55:51.738Z,43.33
2023-01-20T15:58:25.935Z,40.13
2023-01-20T16:00:54.975Z,37.00
2023-01-20T16:03:23.432Z,35.70
2023-01-20T16:05:52.194Z,44.63
2023-01-20T16:08:23.853Z,34.40
2023-01-20T16:10:51.909Z,34.73
2023-01-20T16:13:19.869Z,41.13
2023-01-20T16:15:47.892Z,38.30
2023-01-20T16:18:18.422Z,33.80
2023-01-20T16:20:47.958Z,37.70
2023-01-20T16:23:16.484Z,32.37
2023-01-20T16:25:46.389Z,30.43
2023-01-20T16:28:18.389Z,29.83
2023-01-20T16:30:46.427Z,29.70
2023-01-20T16:33:19.245Z,30.07
2023-01-20T16:35:48.000Z,27.43
2023-01-20T16:38:18.039Z,38.03
2023-01-20T16:40:50.957Z,28.20
2023-01-20T16:43:19.002Z,27.90
2023-01-20T16:45:52.605Z,30.90
2023-01-20T16:48:21.311Z,30.83
2023-01-20T16:50:49.517Z,31.97
2023-01-20T16:53:18.406Z,34.17
2023-01-20T16:55:49.252Z,26.57
2023-01-20T16:58:17.763Z,29.83
2023-01-20T17:00:45.774Z,34.83
2023-01-20T17:03:13.788Z,29.60
2023-01-20T17:05:41.787Z,34.00
2023-01-20T17:08:10.968Z,29.77
2023-01-20T17:10:38.943Z,35.27
2023-01-20T17:13:08.256Z,33.90
2023-01-20T17:15:40.475Z,36.53
2023-01-20T17:18:09.972Z,34.10
2023-01-20T17:20:37.966Z,31.10
2023-01-20T17:23:05.930Z,30.30
2023-01-20T17:25:33.864Z,28.33
2023-01-20T17:28:01.836Z,27.93
2023-01-20T17:30:31.170Z,26.90
2023-01-20T17:32:59.171Z,29.43
2023-01-20T17:35:27.832Z,32.87
2023-01-20T17:37:55.833Z,26.43
2023-01-20T17:40:23.822Z,24.73
2023-01-20T17:42:53.846Z,28.67
2023-01-20T17:45:21.852Z,31.03
2023-01-20T17:47:52.898Z,32.83
2023-01-20T17:50:20.897Z,21.43
2023-01-20T17:52:49.117Z,30.20
2023-01-20T17:55:17.492Z,31.17
2023-01-20T17:57:45.616Z,23.60
2023-01-20T18:00:14.940Z,35.20
2023-01-20T18:02:43.144Z,27.73
2023-01-20T18:05:12.456Z,30.03
2023-01-20T18:07:40.454Z,30.40
2023-01-20T18:10:08.914Z,31.47
2023-01-20T18:12:36.891Z,31.20
2023-01-20T18:15:05.422Z,32.43
2023-01-20T18:17:34.355Z,30.07
2023-01-20T18:20:02.436Z,33.57
2023-01-20T18:22:31.777Z,33.87
2023-01-20T18:24:59.728Z,30.20
2023-01-20T18:27:27.706Z,35.97
2023-01-20T18:29:55.703Z,36.67
2023-01-20T18:32:23.662Z,35.97
2023-01-20T18:34:51.603Z,36.27
2023-01-20T18:37:19.557Z,31.10
2023-01-20T18:39:48.887Z,33.60
2023-01-20T18:42:16.855Z,30.60
2023-01-20T18:44:44.798Z,27.20
2023-01-20T18:47:12.763Z,29.80
2023-01-20T18:49:40.736Z,27.67
2023-01-20T18:52:09.714Z,31.57
2023-01-20T18:54:39.221Z,28.90
2023-01-20T18:57:09.205Z,32.30
2023-01-20T18:59:37.270Z,38.03
2023-01-20T19:02:05.279Z,33.70
2023-01-20T19:04:33.642Z,35.47
2023-01-20T19:07:01.637Z,30.77
2023-01-20T19:09:29.640Z,30.97
2023-01-20T19:11:57.618Z,25.57
2023-01-20T19:14:27.748Z,33.83
2023-01-20T19:16:55.872Z,30.47
2023-01-20T19:19:24.000Z,40.20
2023-01-20T19:21:52.880Z,36.63
2023-01-20T19:24:22.654Z,36.97
2023-01-20T19:26:50.787Z,36.87
2023-01-20T19:29:19.673Z,29.50
2023-01-20T19:31:49.548Z,37.00
2023-01-20T19:34:17.599Z,37.43
2023-01-20T19:36:45.609Z,36.90
2023-01-20T19:39:13.586Z,36.27
2023-01-20T19:41:41.778Z,40.97
2023-01-20T19:44:13.442Z,40.20
2023-01-20T19:46:41.773Z,38.57
2023-01-20T19:49:12.507Z,42.73
2023-01-20T19:51:40.638Z,32.43
2023-01-20T19:54:08.916Z,35.93
2023-01-20T19:56:37.146Z,31.30
2023-01-20T19:59:06.924Z,33.13
2023-01-20T20:01:36.277Z,32.37
2023-01-20T20:04:06.505Z,31.33
2023-01-20T20:06:38.015Z,29.50
2023-01-20T20:09:08.151Z,37.60
2023-01-20T20:11:36.429Z,28.17
2023-01-20T20:14:06.014Z,32.97
2023-01-20T20:16:35.769Z,30.40
2023-01-20T20:19:04.879Z,35.67
2023-01-20T20:21:32.868Z,31.20
2023-01-20T20:24:03.020Z,32.77
2023-01-20T20:26:32.555Z,34.20
2023-01-20T20:29:02.087Z,36.70
2023-01-20T20:31:30.670Z,31.27
2023-01-20T20:33:59.535Z,31.37
2023-01-20T20:36:30.805Z,31.37
2023-01-20T20:38:59.318Z,31.43
2023-01-20T20:41:31.530Z,34.57
2023-01-20T20:44:00.614Z,36.93
2023-01-20T20:46:29.267Z,31.33
2023-01-20T20:48:59.691Z,30.63
2023-01-20T20:51:28.901Z,27.13
2023-01-20T20:53:57.863Z,27.13
2023-01-20T20:56:27.908Z,25.47
2023-01-20T20:59:02.891Z,27.27
2023-01-20T21:01:32.756Z,31.73
2023-01-20T21:04:01.012Z,27.23
2023-01-20T21:06:29.208Z,26.90
2023-01-20T21:08:58.908Z,31.13
2023-01-20T21:11:27.365Z,31.20
2023-01-20T21:13:55.734Z,29.80
2023-01-20T21:16:26.397Z,31.00
2023-01-20T21:18:56.524Z,33.23
2023-01-20T21:21:25.256Z,31.67
2023-01-20T21:23:55.695Z,32.13
2023-01-20T21:26:24.967Z,34.40
2023-01-20T21:28:53.957Z,31.33
2023-01-20T21:31:26.622Z,33.17
2023-01-20T21:33:57.006Z,28.87
2023-01-20T21:36:25.665Z,39.50
2023-01-20T21:38:53.814Z,33.50
2023-01-20T21:41:22.021Z,38.20
2023-01-20T21:44:07.923Z,35.50
2023-01-20T21:46:39.939Z,53.97
2023-01-20T21:49:26.766Z,29.50
2023-01-20T21:52:12.373Z,29.00
2023-01-20T21:54:41.265Z,31.50
2023-01-20T21:57:09.820Z,32.03
2023-01-20T21:59:38.109Z,28.53
2023-01-20T22:02:08.355Z,35.57
2023-01-20T22:04:36.366Z,28.73
2023-01-20T22:07:04.404Z,27.97
2023-01-20T22:09:32.653Z,27.40
2023-01-20T22:12:00.884Z,28.40
2023-01-20T22:14:28.891Z,30.33
2023-01-20T22:16:56.857Z,28.47
2023-01-20T22:19:26.290Z,34.73
2023-01-20T22:21:54.565Z,29.40
2023-01-20T22:24:22.562Z,24.60
2023-01-20T22:26:50.846Z,27.93
2023-01-20T22:29:19.626Z,29.97
2023-01-20T22:31:47.999Z,28.57
2023-01-20T22:34:16.281Z,28.97
2023-01-20T22:36:46.629Z,26.80
2023-01-20T22:39:15.924Z,23.77
2023-01-20T22:41:44.253Z,27.63
2023-01-20T22:44:12.285Z,22.50
2023-01-20T22:46:40.270Z,20.07
2023-01-20T22:49:08.316Z,23.27
2023-01-20T22:51:36.351Z,24.10
2023-01-20T22:54:07.310Z,22.63
2023-01-20T22:56:35.306Z,20.87
2023-01-20T22:59:03.293Z,22.80
2023-01-20T23:01:33.415Z,18.77
2023-01-20T23:04:02.970Z,21.53
2023-01-20T23:06:33.655Z,21.43
2023-01-20T23:09:01.807Z,18.73
2023-01-20T23:11:31.706Z,16.83
2023-01-20T23:14:00.543Z,18.53
2023-01-20T23:16:28.740Z,18.33
2023-01-20T23:18:56.782Z,20.70
2023-01-20T23:21:25.383Z,20.23
2023-01-20T23:23:55.230Z,27.90
2023-01-20T23:26:28.475Z,18.10
2023-01-20T23:28:58.247Z,18.73
2023-01-20T23:31:28.409Z,19.27
2023-01-20T23:33:56.555Z,26.93
2023-01-20T23:36:26.391Z,18.97
2023-01-20T23:38:55.273Z,19.93
2023-01-20T23:41:23.548Z,26.17
2023-01-20T23:43:51.623Z,23.47
2023-01-20T23:46:21.090Z,22.17
2023-01-20T23:48:49.325Z,21.73
2023-01-20T23:51:17.456Z,18.83
2023-01-20T23:53:45.683Z,21.27
2023-01-20T23:56:16.022Z,22.63
2023-01-20T23:58:44.685Z,19.03
